Time,TemperatureF,DewpointF,PressureIn,WindDirection,WindDirectionDegrees,WindSpeedMPH,WindSpeedGustMPH,Humidity,HourlyPrecipIn,Conditions,Clouds,dailyrainin,SolarRadiationWatts/m^2,SoftwareType,DateUTC
2013-02-19 00:01:00,49.0,2.0,30.09,East,86,6.0,9.0,13,-99.99,,,-99.99,0.000000,,2013-02-19 07:01:00,
2013-02-19 00:11:00,49.0,1.0,30.08,ENE,61,8.0,11.0,13,-99.99,,,-99.99,0.000000,,2013-02-19 07:11:00,
2013-02-19 00:22:00,49.0,1.0,30.08,ENE,61,8.0,11.0,13,-99.99,,,-99.99,0.000000,,2013-02-19 07:22:00,
2013-02-19 00:32:00,49.0,1.0,30.08,NE,50,8.0,11.0,13,-99.99,,,-99.99,0.000000,,2013-02-19 07:32:00,
2013-02-19 00:42:00,50.0,1.0,30.08,NE,51,5.0,9.0,13,-99.99,,,-99.99,0.000000,,2013-02-19 07:42:00,
2013-02-19 00:52:00,50.0,1.0,30.08,NE,51,5.0,9.0,13,-99.99,,,-99.99,0.000000,,2013-02-19 07:52:00,
2013-02-19 01:02:00,50.0,1.0,30.08,North,7,0.0,4.0,12,-99.99,,,-99.99,0.000000,,2013-02-19 08:02:00,
2013-02-19 01:11:00,50.0,1.0,30.08,North,0,0.0,0.0,12,-99.99,,,-99.99,0.000000,,2013-02-19 08:11:00,
2013-02-19 01:21:00,50.0,1.0,30.08,North,0,0.0,0.0,12,-99.99,,,-99.99,0.000000,,2013-02-19 08:21:00,
2013-02-19 01:31:00,49.0,1.0,30.09,North,0,0.0,0.0,13,-99.99,,,-99.99,0.000000,,2013-02-19 08:31:00,
2013-02-19 01:42:00,49.0,1.0,30.09,ENE,70,3.0,6.0,13,-99.99,,,-99.99,0.000000,,2013-02-19 08:42:00,
2013-02-19 01:52:00,49.0,1.0,30.09,ENE,70,3.0,6.0,13,-99.99,,,-99.99,0.000000,,2013-02-19 08:52:00,
2013-02-19 02:01:00,48.0,1.0,30.09,ENE,57,6.0,8.0,13,-99.99,,,-99.99,0.000000,,2013-02-19 09:01:00,
2013-02-19 02:11:00,48.0,1.0,30.09,NE,42,7.0,9.0,13,-99.99,,,-99.99,0.000000,,2013-02-19 09:11:00,
2013-02-19 02:22:00,48.0,1.0,30.09,NE,42,7.0,9.0,13,-99.99,,,-99.99,0.000000,,2013-02-19 09:22:00,
2013-02-19 02:32:00,48.0,1.0,30.09,NE,42,7.0,9.0,13,-99.99,,,-99.99,0.000000,,2013-02-19 09:32:00,
2013-02-19 02:42:00,49.0,1.0,30.08,NE,50,9.0,10.0,13,-99.99,,,-99.99,0.000000,,2013-02-19 09:42:00,
2013-02-19 02:53:00,49.0,1.0,30.08,NE,50,9.0,10.0,13,-99.99,,,-99.99,0.000000,,2013-02-19 09:53:00,
2013-02-19 03:02:00,49.0,1.0,30.08,NE,50,9.0,10.0,13,-99.99,,,-99.99,0.000000,,2013-02-19 10:02:00,
2013-02-19 03:11:00,49.0,1.0,30.07,NE,49,8.0,10.0,13,-99.99,,,-99.99,0.000000,,2013-02-19 10:11:00,
2013-02-19 03:22:00,49.0,1.0,30.07,NE,49,8.0,10.0,13,-99.99,,,-99.99,0.000000,,2013-02-19 10:22:00,
2013-02-19 03:32:00,49.0,1.0,30.07,NE,43,9.0,10.0,13,-99.99,,,-99.99,0.000000,,2013-02-19 10:32:00,
2013-02-19 03:42:00,49.0,1.0,30.07,NE,54,8.0,11.0,13,-99.99,,,-99.99,0.000000,,2013-02-19 10:42:00,
2013-02-19 03:52:00,49.0,1.0,30.07,NE,54,8.0,11.0,13,-99.99,,,-99.99,0.000000,,2013-02-19 10:52:00,
2013-02-19 04:01:00,49.0,1.0,30.06,NE,52,8.0,10.0,13,-99.99,,,-99.99,0.000000,,2013-02-19 11:01:00,
2013-02-19 04:11:00,48.0,1.0,30.05,NE,47,11.0,12.0,14,-99.99,,,-99.99,0.000000,,2013-02-19 11:11:00,
2013-02-19 04:22:00,48.0,1.0,30.05,NE,47,11.0,12.0,14,-99.99,,,-99.99,0.000000,,2013-02-19 11:22:00,
2013-02-19 04:32:00,48.0,1.0,30.05,NE,47,11.0,12.0,14,-99.99,,,-99.99,0.000000,,2013-02-19 11:32:00,
2013-02-19 04:42:00,48.0,1.0,30.04,NE,45,13.0,15.0,14,-99.99,,,-99.99,0.000000,,2013-02-19 11:42:00,
2013-02-19 04:52:00,48.0,1.0,30.04,NE,45,13.0,15.0,14,-99.99,,,-99.99,0.000000,,2013-02-19 11:52:00,
2013-02-19 05:02:00,48.0,1.0,30.04,NE,52,12.0,15.0,14,-99.99,,,-99.99,0.000000,,2013-02-19 12:02:00,
2013-02-19 05:12:00,47.0,1.0,30.04,NE,52,13.0,15.0,14,-99.99,,,-99.99,0.000000,,2013-02-19 12:12:00,
2013-02-19 05:22:00,47.0,1.0,30.04,NE,52,13.0,15.0,14,-99.99,,,-99.99,0.000000,,2013-02-19 12:22:00,
2013-02-19 05:32:00,47.0,1.0,30.04,NE,51,14.0,16.0,14,-99.99,,,-99.99,0.000000,,2013-02-19 12:32:00,
2013-02-19 05:42:00,47.0,1.0,30.04,ENE,58,12.0,15.0,14,-99.99,,,-99.99,0.000000,,2013-02-19 12:42:00,
2013-02-19 05:52:00,47.0,1.0,30.04,ENE,58,12.0,15.0,14,-99.99,,,-99.99,0.000000,,2013-02-19 12:52:00,
2013-02-19 06:02:00,46.0,1.0,30.03,ENE,62,12.0,16.0,14,-99.99,,,-99.99,0.000000,,2013-02-19 13:02:00,
2013-02-19 06:11:00,46.0,1.0,30.03,ENE,62,12.0,15.0,15,-99.99,,,-99.99,0.000000,,2013-02-19 13:11:00,
2013-02-19 06:22:00,46.0,1.0,30.03,ENE,62,12.0,15.0,15,-99.99,,,-99.99,0.000000,,2013-02-19 13:22:00,
2013-02-19 06:32:00,46.0,1.0,30.03,ENE,62,12.0,15.0,15,-99.99,,,-99.99,0.000000,,2013-02-19 13:32:00,
2013-02-19 06:42:00,44.0,1.0,30.04,ENE,66,11.0,16.0,16,-99.99,,,-99.99,0.000000,,2013-02-19 13:42:00,
2013-02-19 06:52:00,44.0,1.0,30.04,ENE,66,11.0,16.0,16,-99.99,,,-99.99,0.000000,,2013-02-19 13:52:00,
2013-02-19 07:01:00,43.0,1.0,30.03,ENE,62,11.0,15.0,17,-99.99,,,-99.99,0.000000,,2013-02-19 14:01:00,
2013-02-19 07:11:00,43.0,1.0,30.03,ENE,71,11.0,15.0,17,-99.99,,,-99.99,2.090000,,2013-02-19 14:11:00,
2013-02-19 07:21:00,43.0,1.0,30.03,ENE,71,11.0,15.0,17,-99.99,,,-99.99,2.090000,,2013-02-19 14:21:00,
2013-02-19 07:32:00,43.0,1.0,30.04,ENE,70,11.0,15.0,16,-99.99,,,-99.99,18.129999,,2013-02-19 14:32:00,
2013-02-19 07:42:00,43.0,1.0,30.04,ENE,70,11.0,15.0,16,-99.99,,,-99.99,18.129999,,2013-02-19 14:42:00,
2013-02-19 07:52:00,43.0,1.0,30.04,ENE,70,11.0,15.0,16,-99.99,,,-99.99,18.129999,,2013-02-19 14:52:00,
2013-02-19 08:01:00,43.0,2.0,30.04,East,84,11.0,14.0,17,-99.99,,,-99.99,125.519997,,2013-02-19 15:01:00,
2013-02-19 08:11:00,43.0,2.0,30.05,East,92,12.0,18.0,16,-99.99,,,-99.99,179.210007,,2013-02-19 15:11:00,
2013-02-19 08:21:00,43.0,2.0,30.05,East,92,12.0,18.0,16,-99.99,,,-99.99,179.210007,,2013-02-19 15:21:00,
2013-02-19 08:32:00,45.0,1.0,30.06,ENE,62,11.0,16.0,15,-99.99,,,-99.99,235.699997,,2013-02-19 15:32:00,
2013-02-19 08:42:00,45.0,2.0,30.05,ENE,75,14.0,19.0,16,-99.99,,,-99.99,290.089996,,2013-02-19 15:42:00,
2013-02-19 08:52:00,45.0,2.0,30.05,ENE,75,14.0,19.0,16,-99.99,,,-99.99,290.089996,,2013-02-19 15:52:00,
2013-02-19 09:02:00,45.0,2.0,30.05,ENE,75,14.0,19.0,16,-99.99,,,-99.99,290.089996,,2013-02-19 16:02:00,
2013-02-19 09:11:00,46.0,4.0,30.06,ENE,63,11.0,15.0,17,-99.99,,,-99.99,395.390015,,2013-02-19 16:11:00,
2013-02-19 09:22:00,46.0,4.0,30.06,ENE,63,11.0,15.0,17,-99.99,,,-99.99,395.390015,,2013-02-19 16:22:00,
2013-02-19 09:32:00,46.0,4.0,30.06,ENE,63,11.0,15.0,17,-99.99,,,-99.99,395.390015,,2013-02-19 16:32:00,
2013-02-19 09:41:00,49.0,3.0,30.05,ENE,63,13.0,20.0,14,-99.99,,,-99.99,501.380005,,2013-02-19 16:41:00,
2013-02-19 09:52:00,49.0,3.0,30.05,ENE,63,13.0,20.0,14,-99.99,,,-99.99,501.380005,,2013-02-19 16:52:00,
2013-02-19 10:01:00,49.0,2.0,30.05,ENE,58,14.0,20.0,14,-99.99,,,-99.99,554.380005,,2013-02-19 17:01:00,
2013-02-19 10:11:00,49.0,3.0,30.04,ENE,62,12.0,18.0,14,-99.99,,,-99.99,546.710022,,2013-02-19 17:11:00,
2013-02-19 10:21:00,49.0,3.0,30.04,ENE,62,12.0,18.0,14,-99.99,,,-99.99,546.710022,,2013-02-19 17:21:00,
2013-02-19 10:32:00,49.0,4.0,30.05,ENE,66,11.0,17.0,14,-99.99,,,-99.99,571.809998,,2013-02-19 17:32:00,
2013-02-19 10:42:00,50.0,4.0,30.05,ENE,59,9.0,15.0,14,-99.99,,,-99.99,587.150024,,2013-02-19 17:42:00,
2013-02-19 10:52:00,50.0,4.0,30.05,ENE,59,9.0,15.0,14,-99.99,,,-99.99,587.150024,,2013-02-19 17:52:00,
2013-02-19 11:01:00,49.0,5.0,30.04,ENE,68,11.0,18.0,15,-99.99,,,-99.99,594.830017,,2013-02-19 18:01:00,
2013-02-19 11:11:00,51.0,5.0,30.05,ENE,60,8.0,13.0,15,-99.99,,,-99.99,573.210022,,2013-02-19 18:11:00,
2013-02-19 11:21:00,51.0,5.0,30.05,ENE,60,8.0,13.0,15,-99.99,,,-99.99,573.210022,,2013-02-19 18:21:00,
2013-02-19 11:31:00,51.0,7.0,30.05,NE,56,7.0,14.0,16,-99.99,,,-99.99,524.390015,,2013-02-19 18:31:00,
2013-02-19 11:42:00,53.0,11.0,30.04,SW,227,7.0,22.0,18,-99.99,,,-99.99,467.910004,,2013-02-19 18:42:00,
2013-02-19 11:52:00,53.0,11.0,30.04,SW,227,7.0,22.0,18,-99.99,,,-99.99,467.910004,,2013-02-19 18:52:00,
2013-02-19 12:00:00,51.0,22.0,30.01,WSW,239,19.0,35.0,31,-99.99,,,-99.99,240.580002,,2013-02-19 19:00:00,
2013-02-19 12:01:00,53.0,18.0,30.03,SW,228,15.0,37.0,25,-99.99,,,-99.99,420.489990,,2013-02-19 19:01:00,
2013-02-19 12:11:00,52.0,21.0,30.02,SW,218,16.0,31.0,29,-99.99,,,-99.99,334.019989,,2013-02-19 19:11:00,
2013-02-19 12:21:00,52.0,21.0,30.02,SW,218,16.0,31.0,29,-99.99,,,-99.99,334.019989,,2013-02-19 19:21:00,
2013-02-19 12:31:00,51.0,22.0,30.01,WSW,239,19.0,35.0,31,-99.99,,,-99.99,240.580002,,2013-02-19 19:31:00,
2013-02-19 12:41:00,51.0,22.0,30.01,WSW,239,19.0,35.0,31,-99.99,,,-99.99,240.580002,,2013-02-19 19:41:00,
2013-02-19 12:52:00,51.0,22.0,30.01,WSW,239,19.0,35.0,31,-99.99,,,-99.99,240.580002,,2013-02-19 19:52:00,